createdAt,value
2022-11-29T00:00:34.046Z,101539.84
2022-11-29T00:02:36.463Z,101542.94
2022-11-29T00:04:38.694Z,101528.88
2022-11-29T00:06:40.742Z,101522.34
2022-11-29T00:08:43.684Z,101536.78
2022-11-29T00:10:45.869Z,101525.78
2022-11-29T00:12:48.487Z,101530.66
2022-11-29T00:14:51.581Z,101515.94
2022-11-29T00:16:57.082Z,101521.69
2022-11-29T00:18:59.228Z,101500.34
2022-11-29T00:21:08.883Z,101511.09
2022-11-29T00:23:11.625Z,101509.94
2022-11-29T00:25:13.757Z,101515.91
2022-11-29T00:27:16.421Z,101519.13
2022-11-29T00:29:18.914Z,101498.94
2022-11-29T00:31:25.211Z,101501.63
2022-11-29T00:33:28.123Z,101509.53
2022-11-29T00:35:30.800Z,101501.63
2022-11-29T00:37:33.008Z,101500.34
2022-11-29T00:39:35.353Z,101522.06
2022-11-29T00:41:38.018Z,101512.84
2022-11-29T00:43:39.967Z,101503.28
2022-11-29T00:45:42.181Z,101505.72
2022-11-29T00:47:44.367Z,101497.41
2022-11-29T00:49:47.079Z,101504.28
2022-11-29T00:51:49.190Z,101511.59
2022-11-29T00:53:51.300Z,101508.13
2022-11-29T00:55:53.971Z,101489.84
2022-11-29T00:57:56.193Z,101506.34
2022-11-29T00:59:58.205Z,101499.44
2022-11-29T01:02:00.418Z,101489.59
2022-11-29T01:04:02.461Z,101505.56
2022-11-29T01:06:11.987Z,101505.84
2022-11-29T01:08:15.458Z,101491.88
2022-11-29T01:10:17.581Z,101507.34
2022-11-29T01:12:19.805Z,101489.47
2022-11-29T01:14:21.801Z,101487.00
2022-11-29T01:16:24.350Z,101496.75
2022-11-29T01:18:26.947Z,101499.16
2022-11-29T01:20:29.185Z,101496.97
2022-11-29T01:22:31.308Z,101489.47
2022-11-29T01:24:33.372Z,101503.78
2022-11-29T01:26:35.669Z,101484.06
2022-11-29T01:28:40.396Z,101477.44
2022-11-29T01:30:42.501Z,101481.41
2022-11-29T01:32:44.533Z,101487.78
2022-11-29T01:34:46.918Z,101491.25
2022-11-29T01:36:49.099Z,101494.44
2022-11-29T01:38:51.571Z,101486.25
2022-11-29T01:41:03.653Z,101498.56
2022-11-29T01:43:15.203Z,101493.94
2022-11-29T01:45:26.692Z,101493.28
2022-11-29T01:47:29.551Z,101491.13
2022-11-29T01:49:41.562Z,101483.19
2022-11-29T01:51:49.249Z,101500.22
2022-11-29T01:53:51.559Z,101499.56
2022-11-29T01:56:01.458Z,101503.41
2022-11-29T01:58:06.709Z,101501.47
2022-11-29T02:00:16.245Z,101503.00
2022-11-29T02:02:25.156Z,101503.78
2022-11-29T02:04:27.589Z,101499.31
2022-11-29T02:06:30.623Z,101521.31
2022-11-29T02:08:38.375Z,101516.19
2022-11-29T02:10:55.719Z,101526.69
2022-11-29T02:13:12.575Z,101503.66
2022-11-29T02:15:20.189Z,101519.78
2022-11-29T02:17:37.008Z,101522.81
2022-11-29T02:20:10.360Z,101517.72
2022-11-29T02:22:50.261Z,101493.25
2022-11-29T02:25:11.208Z,101518.69
2022-11-29T02:27:23.265Z,101513.50
2022-11-29T02:30:02.549Z,101510.69
2022-11-29T02:32:35.157Z,101511.97
2022-11-29T02:35:01.839Z,101518.09
2022-11-29T02:37:54.833Z,101512.84
2022-11-29T02:40:18.270Z,101520.38
2022-11-29T02:43:06.681Z,101506.44
2022-11-29T02:45:35.157Z,101513.22
2022-11-29T02:47:54.070Z,101510.00
2022-11-29T02:49:56.230Z,101522.38
2022-11-29T02:52:06.489Z,101517.66
2022-11-29T02:54:26.670Z,101520.34
2022-11-29T02:56:54.773Z,101504.34
2022-11-29T02:59:31.716Z,101523.69
2022-11-29T03:02:00.302Z,101508.31
2022-11-29T03:04:44.150Z,101520.84
2022-11-29T03:07:04.715Z,101519.97
2022-11-29T03:09:06.950Z,101516.66
2022-11-29T03:11:20.666Z,101523.66
2022-11-29T03:13:41.426Z,101523.84
2022-11-29T03:15:52.863Z,101516.19
2022-11-29T03:18:02.282Z,101510.44
2022-11-29T03:20:28.119Z,101525.28
2022-11-29T03:22:48.204Z,101524.50
2022-11-29T03:24:59.509Z,101533.09
2022-11-29T03:27:06.972Z,101494.03
2022-11-29T03:29:27.124Z,101533.34
2022-11-29T03:31:32.833Z,101526.81
2022-11-29T03:34:04.499Z,101531.06
2022-11-29T03:36:33.965Z,101535.94
2022-11-29T03:38:43.212Z,101541.28
2022-11-29T03:41:10.335Z,101542.84
2022-11-29T03:43:50.556Z,101543.31
2022-11-29T03:45:56.229Z,101539.75
2022-11-29T03:48:08.122Z,101530.53
2022-11-29T03:50:18.606Z,101514.38
2022-11-29T03:52:52.406Z,101526.44
2022-11-29T03:55:12.986Z,101537.19
2022-11-29T03:57:25.942Z,101521.59
2022-11-29T03:59:56.159Z,101540.91
2022-11-29T04:02:32.119Z,101541.94
2022-11-29T04:04:53.347Z,101549.72
2022-11-29T04:06:55.313Z,101560.03
2022-11-29T04:09:06.614Z,101557.34
2022-11-29T04:11:27.489Z,101544.94
2022-11-29T04:13:56.731Z,101545.66
2022-11-29T04:16:11.581Z,101541.34
2022-11-29T04:18:32.386Z,101547.75
2022-11-29T04:21:21.972Z,101550.78
2022-11-29T04:23:40.587Z,101538.00
2022-11-29T04:26:04.052Z,101539.41
2022-11-29T04:28:25.084Z,101548.22
2022-11-29T04:30:33.838Z,101540.31
2022-11-29T04:33:20.203Z,101534.66
2022-11-29T04:35:43.461Z,101556.13
2022-11-29T04:38:06.794Z,101552.88
2022-11-29T04:40:51.959Z,101547.16
2022-11-29T04:43:15.288Z,101552.19
2022-11-29T04:45:20.134Z,101553.75
2022-11-29T04:48:23.770Z,101555.56
2022-11-29T04:50:47.597Z,101568.25
2022-11-29T04:53:09.364Z,101556.44
2022-11-29T04:55:43.570Z,101572.91
2022-11-29T04:57:58.035Z,101568.56
2022-11-29T05:00:12.397Z,101574.50
2022-11-29T05:02:44.597Z,101579.03
2022-11-29T05:04:50.981Z,101591.94
2022-11-29T05:07:14.237Z,101592.16
2022-11-29T05:09:31.261Z,101575.88
2022-11-29T05:12:24.614Z,101594.72
2022-11-29T05:15:04.398Z,101603.69
2022-11-29T05:17:36.488Z,101599.88
2022-11-29T05:20:03.915Z,101594.50
2022-11-29T05:22:25.878Z,101602.94
2022-11-29T05:24:28.865Z,101597.72
2022-11-29T05:26:36.679Z,101601.78
2022-11-29T05:29:10.229Z,101575.06
2022-11-29T05:31:27.092Z,101610.00
2022-11-29T05:33:35.320Z,101610.13
2022-11-29T05:35:55.057Z,101587.72
2022-11-29T05:38:42.030Z,101618.13
2022-11-29T05:40:57.314Z,101605.72
2022-11-29T05:43:06.855Z,101618.19
2022-11-29T05:45:17.881Z,101616.97
2022-11-29T05:47:32.724Z,101605.09
2022-11-29T05:49:41.676Z,101624.69
2022-11-29T05:52:17.628Z,101611.56
2022-11-29T05:54:36.131Z,101611.16
2022-11-29T05:57:06.878Z,101578.19
2022-11-29T05:59:15.868Z,101625.53
2022-11-29T06:01:30.061Z,101617.25
2022-11-29T06:03:57.359Z,101606.88
2022-11-29T06:06:08.335Z,101571.34
2022-11-29T06:08:48.701Z,101608.69
2022-11-29T06:11:06.072Z,101587.66
2022-11-29T06:13:48.359Z,101627.69
2022-11-29T06:16:02.498Z,101628.38
2022-11-29T06:18:28.700Z,101638.50
2022-11-29T06:21:00.262Z,101631.88
2022-11-29T06:23:24.752Z,101641.47
2022-11-29T06:25:50.027Z,101645.66
2022-11-29T06:28:10.801Z,101650.00
2022-11-29T06:30:20.931Z,101653.31
2022-11-29T06:32:40.387Z,101655.81
2022-11-29T06:34:54.500Z,101648.56
2022-11-29T06:37:09.421Z,101638.03
2022-11-29T06:39:12.124Z,101657.56
2022-11-29T06:41:22.309Z,101620.00
2022-11-29T06:43:26.050Z,101649.41
2022-11-29T06:45:28.728Z,101645.38
2022-11-29T06:47:44.510Z,101665.75
2022-11-29T06:50:01.413Z,101655.97
2022-11-29T06:52:31.847Z,101667.22
2022-11-29T06:54:48.926Z,101669.28
2022-11-29T06:57:12.497Z,101661.88
2022-11-29T06:59:17.410Z,101652.09
2022-11-29T07:01:37.976Z,101664.88
2022-11-29T07:03:43.125Z,101659.94
2022-11-29T07:05:46.699Z,101608.22
2022-11-29T07:07:49.721Z,101653.97
2022-11-29T07:09:59.685Z,101659.22
2022-11-29T07:12:02.349Z,101672.22
2022-11-29T07:14:04.851Z,101672.28
2022-11-29T07:16:26.208Z,101668.97
2022-11-29T07:18:36.951Z,101662.03
2022-11-29T07:21:15.248Z,101665.88
2022-11-29T07:23:36.475Z,101624.03
2022-11-29T07:26:02.764Z,101652.69
2022-11-29T07:28:38.931Z,101679.53
2022-11-29T07:30:53.178Z,101675.47
2022-11-29T07:33:09.126Z,101679.50
2022-11-29T07:35:32.874Z,101681.06
2022-11-29T07:37:46.897Z,101678.81
2022-11-29T07:40:06.817Z,101680.00
2022-11-29T07:42:23.558Z,101664.13
2022-11-29T07:44:55.418Z,101675.19
2022-11-29T07:46:57.832Z,101668.72
2022-11-29T07:49:00.084Z,101682.03
2022-11-29T07:51:02.647Z,101664.03
2022-11-29T07:53:15.749Z,101675.81
2022-11-29T07:55:21.398Z,101674.72
2022-11-29T07:57:23.669Z,101671.56
2022-11-29T07:59:27.483Z,101676.66
2022-11-29T08:01:29.751Z,101619.38
2022-11-29T08:03:33.089Z,101673.97
2022-11-29T08:05:36.443Z,101678.69
2022-11-29T08:07:40.345Z,101674.59
2022-11-29T08:09:44.377Z,101684.06
2022-11-29T08:11:49.000Z,101683.66
2022-11-29T08:13:51.382Z,101674.31
2022-11-29T08:15:53.504Z,101673.38
2022-11-29T08:17:55.640Z,101678.25
2022-11-29T08:20:01.247Z,101675.16
2022-11-29T08:22:06.089Z,101665.63
2022-11-29T08:24:08.417Z,101646.44
2022-11-29T08:26:10.389Z,101673.13
2022-11-29T08:28:12.634Z,101646.94
2022-11-29T08:30:15.068Z,101660.16
2022-11-29T08:32:17.402Z,101667.41
2022-11-29T08:34:20.303Z,101678.97
2022-11-29T08:36:22.222Z,101681.44
2022-11-29T08:38:24.711Z,101662.09
2022-11-29T08:40:27.136Z,101678.03
2022-11-29T08:42:29.204Z,101668.66
2022-11-29T08:44:31.474Z,101659.91
2022-11-29T08:46:52.290Z,101674.69
2022-11-29T08:48:54.454Z,101656.91
2022-11-29T08:50:56.874Z,101675.66
2022-11-29T08:53:17.225Z,101676.03
2022-11-29T08:55:25.950Z,101662.38
2022-11-29T08:57:39.772Z,101667.91
2022-11-29T08:59:45.012Z,101673.72
2022-11-29T09:01:47.230Z,101672.47
2022-11-29T09:04:05.257Z,101673.03
2022-11-29T09:06:15.044Z,101679.13
2022-11-29T09:08:17.289Z,101683.84
2022-11-29T09:10:19.432Z,101677.34
2022-11-29T09:12:21.532Z,101671.22
2022-11-29T09:14:23.510Z,101653.19
2022-11-29T09:16:27.946Z,101667.44
2022-11-29T09:18:30.262Z,101679.59
2022-11-29T09:20:32.671Z,101674.47
2022-11-29T09:22:34.752Z,101680.06
2022-11-29T09:24:37.002Z,101633.44
2022-11-29T09:26:42.042Z,101664.63
2022-11-29T09:28:44.243Z,101643.63
2022-11-29T09:30:46.294Z,101663.22
2022-11-29T09:32:48.386Z,101667.84
2022-11-29T09:34:50.535Z,101671.53
2022-11-29T09:36:52.638Z,101669.44
2022-11-29T09:38:54.730Z,101666.59
2022-11-29T09:41:05.322Z,101681.69
2022-11-29T09:43:21.510Z,101664.34
2022-11-29T09:45:43.287Z,101667.13
2022-11-29T09:48:21.041Z,101673.69
2022-11-29T09:50:32.537Z,101663.69
2022-11-29T09:52:43.313Z,101646.38
2022-11-29T09:55:01.851Z,101663.59
2022-11-29T09:57:10.529Z,101663.34
2022-11-29T09:59:27.554Z,101657.16
2022-11-29T10:01:43.176Z,101649.78
2022-11-29T10:03:51.994Z,101635.16
2022-11-29T10:06:04.059Z,101640.50
2022-11-29T10:08:44.112Z,101656.66
2022-11-29T10:10:48.770Z,101647.91
2022-11-29T10:13:00.186Z,101643.97
2022-11-29T10:15:14.131Z,101640.72
2022-11-29T10:17:32.496Z,101660.38
2022-11-29T10:19:42.788Z,101649.53
2022-11-29T10:21:54.269Z,101608.41
2022-11-29T10:24:01.774Z,101642.28
2022-11-29T10:26:08.224Z,101636.38
2022-11-29T10:28:16.267Z,101659.84
2022-11-29T10:30:18.651Z,101635.44
2022-11-29T10:32:21.543Z,101655.34
2022-11-29T10:34:25.743Z,101657.97
2022-11-29T10:36:39.101Z,101657.72
2022-11-29T10:38:43.286Z,101657.19
2022-11-29T10:40:49.154Z,101659.97
2022-11-29T10:42:54.922Z,101663.44
2022-11-29T10:44:58.705Z,101636.41
2022-11-29T10:47:10.409Z,101654.94
2022-11-29T10:49:17.140Z,101646.66
2022-11-29T10:51:19.887Z,101658.13
2022-11-29T10:53:36.126Z,101635.34
2022-11-29T10:56:07.172Z,101630.63
2022-11-29T10:58:27.904Z,101656.81
2022-11-29T11:00:31.049Z,101639.00
2022-11-29T11:02:34.963Z,101657.81
2022-11-29T11:04:45.422Z,101638.38
2022-11-29T11:06:52.855Z,101650.13
2022-11-29T11:09:11.522Z,101644.91
2022-11-29T11:11:15.257Z,101658.38
2022-11-29T11:13:29.896Z,101647.97
2022-11-29T11:15:33.505Z,101635.19
2022-11-29T11:17:39.962Z,101621.13
2022-11-29T11:19:42.720Z,101635.88
2022-11-29T11:21:45.141Z,101642.72
2022-11-29T11:23:57.758Z,101638.78
2022-11-29T11:26:06.675Z,101632.06
2022-11-29T11:28:25.810Z,101643.75
2022-11-29T11:30:30.176Z,101645.88
2022-11-29T11:32:32.620Z,101584.91
2022-11-29T11:34:37.595Z,101642.91
2022-11-29T11:36:39.856Z,101652.03
2022-11-29T11:38:55.791Z,101652.09
2022-11-29T11:41:09.848Z,101648.22
2022-11-29T11:43:21.625Z,101648.91
2022-11-29T11:45:33.789Z,101657.75
2022-11-29T11:47:41.506Z,101638.00
2022-11-29T11:49:50.224Z,101659.50
2022-11-29T11:51:52.495Z,101628.84
2022-11-29T11:53:58.060Z,101654.25
2022-11-29T11:56:03.030Z,101650.03
2022-11-29T11:58:10.356Z,101664.44
2022-11-29T12:03:24.918Z,101634.88
2022-11-29T12:05:27.101Z,101657.59
2022-11-29T12:08:07.246Z,101616.19
2022-11-29T12:10:11.478Z,101657.78
2022-11-29T12:12:29.714Z,101657.78
2022-11-29T12:14:44.995Z,101658.72
2022-11-29T12:16:54.930Z,101643.53
2022-11-29T12:19:18.928Z,101656.31
2022-11-29T12:21:28.277Z,101658.09
2022-11-29T12:23:45.995Z,101643.41
2022-11-29T12:25:58.017Z,101657.03
2022-11-29T12:28:00.411Z,101637.25
2022-11-29T12:30:02.886Z,101663.69
2022-11-29T12:32:16.191Z,101663.25
2022-11-29T12:34:22.773Z,101665.22
2022-11-29T12:37:11.293Z,101667.72
2022-11-29T12:39:21.680Z,101649.78
2022-11-29T12:41:32.736Z,101666.41
2022-11-29T12:44:05.416Z,101673.03
2022-11-29T12:46:19.874Z,101670.63
2022-11-29T12:48:52.469Z,101665.53
2022-11-29T12:51:02.577Z,101673.78
2022-11-29T12:53:25.526Z,101674.13
2022-11-29T12:55:44.485Z,101664.56
2022-11-29T12:58:14.342Z,101676.59
2022-11-29T13:00:20.384Z,101640.94
2022-11-29T13:02:50.586Z,101675.53
2022-11-29T13:05:09.986Z,101671.19
2022-11-29T13:07:44.330Z,101672.88
2022-11-29T13:10:14.942Z,101665.22
2022-11-29T13:12:26.970Z,101671.38
2022-11-29T13:14:44.863Z,101665.06
2022-11-29T13:16:56.910Z,101678.88
2022-11-29T13:19:21.023Z,101665.97
2022-11-29T13:21:34.916Z,101665.97
2022-11-29T13:24:09.022Z,101676.31
2022-11-29T13:26:13.741Z,101681.25
2022-11-29T13:28:24.140Z,101570.88
2022-11-29T13:30:26.833Z,101661.03
2022-11-29T13:32:35.979Z,101671.03
2022-11-29T13:34:44.232Z,101667.00
2022-11-29T13:37:21.097Z,101675.66
2022-11-29T13:39:42.511Z,101657.06
2022-11-29T13:42:07.839Z,101667.69
2022-11-29T13:44:33.017Z,101673.53
2022-11-29T13:47:11.249Z,101680.56
2022-11-29T13:49:41.008Z,101676.06
2022-11-29T13:51:43.282Z,101679.81
2022-11-29T13:53:49.068Z,101681.28
2022-11-29T13:56:02.722Z,101627.19
2022-11-29T13:58:16.707Z,101639.03
2022-11-29T14:00:44.365Z,101676.44
2022-11-29T14:02:46.550Z,101664.91
2022-11-29T14:04:48.621Z,101669.56
2022-11-29T14:07:01.240Z,101676.28
2022-11-29T14:09:25.555Z,101676.56
2022-11-29T14:11:43.612Z,101663.97
2022-11-29T14:13:59.610Z,101677.44
2022-11-29T14:16:05.677Z,101683.72
2022-11-29T14:18:47.757Z,101680.56
2022-11-29T14:20:57.613Z,101687.00
2022-11-29T14:23:32.554Z,101675.16
2022-11-29T14:25:57.847Z,101681.78
2022-11-29T14:28:05.193Z,101676.19
2022-11-29T14:30:35.780Z,101684.16
2022-11-29T14:32:52.971Z,101669.78
2022-11-29T14:35:08.246Z,101628.66
2022-11-29T14:37:37.044Z,101675.44
2022-11-29T14:39:49.880Z,101687.56
2022-11-29T14:42:14.704Z,101650.69
2022-11-29T14:44:22.170Z,101673.16
2022-11-29T14:46:32.067Z,101664.16
2022-11-29T14:48:37.037Z,101661.31
2022-11-29T14:50:40.845Z,101667.13
2022-11-29T14:52:52.717Z,101669.84
2022-11-29T14:55:31.709Z,101640.25
2022-11-29T14:57:53.433Z,101674.91
2022-11-29T14:59:55.990Z,101670.09
2022-11-29T15:02:00.965Z,101684.91
2022-11-29T15:04:07.321Z,101660.63
2022-11-29T15:06:15.717Z,101674.75
2022-11-29T15:08:32.149Z,101633.97
2022-11-29T15:10:45.855Z,101670.47
2022-11-29T15:12:56.283Z,101656.97
2022-11-29T15:15:34.180Z,101688.44
2022-11-29T15:18:15.615Z,101694.28
2022-11-29T15:20:21.210Z,101696.66
2022-11-29T15:22:31.010Z,101680.03
2022-11-29T15:25:01.332Z,101689.03
2022-11-29T15:27:05.131Z,101670.72
2022-11-29T15:29:15.296Z,101667.31
2022-11-29T15:31:20.420Z,101676.78
2022-11-29T15:33:25.553Z,101682.56
2022-11-29T15:35:28.916Z,101680.63
2022-11-29T15:37:31.172Z,101681.63
2022-11-29T15:39:35.737Z,101685.78
2022-11-29T15:41:38.159Z,101671.09
2022-11-29T15:43:41.091Z,101658.34
2022-11-29T15:45:51.186Z,101677.22
2022-11-29T15:47:54.505Z,101678.53
2022-11-29T15:49:56.943Z,101681.97
2022-11-29T15:52:14.451Z,101676.75
2022-11-29T15:54:31.401Z,101652.63
2022-11-29T15:56:44.312Z,101677.47
2022-11-29T15:58:48.308Z,101659.91
2022-11-29T16:00:52.312Z,101666.63
2022-11-29T16:03:00.221Z,101617.63
2022-11-29T16:05:36.837Z,101665.63
2022-11-29T16:07:40.441Z,101676.69
2022-11-29T16:09:47.205Z,101676.50
2022-11-29T16:11:49.680Z,101666.63
2022-11-29T16:14:13.168Z,101672.19
2022-11-29T16:16:20.483Z,101678.13
2022-11-29T16:18:25.749Z,101685.59
2022-11-29T16:20:28.878Z,101679.53
2022-11-29T16:22:32.348Z,101683.88
2022-11-29T16:24:36.850Z,101690.03
2022-11-29T16:26:43.109Z,101692.38
2022-11-29T16:28:48.985Z,101694.94
2022-11-29T16:30:51.245Z,101693.13
2022-11-29T16:32:55.506Z,101693.88
2022-11-29T16:35:07.091Z,101676.63
2022-11-29T16:37:22.433Z,101690.69
2022-11-29T16:39:25.686Z,101689.88
2022-11-29T16:41:33.445Z,101688.81
2022-11-29T16:43:47.522Z,101697.78
2022-11-29T16:46:35.866Z,101697.66
2022-11-29T16:48:38.501Z,101683.09
2022-11-29T16:50:41.156Z,101673.53
2022-11-29T16:52:43.755Z,101689.22
2022-11-29T16:54:46.335Z,101677.50
2022-11-29T16:56:50.740Z,101685.47
2022-11-29T16:59:24.688Z,101695.34
2022-11-29T17:01:18.557Z,101691.59
2022-11-29T17:03:20.830Z,101679.00
2022-11-29T17:05:22.918Z,101687.25
2022-11-29T17:07:32.157Z,101676.88
2022-11-29T17:09:35.820Z,101661.16
2022-11-29T17:11:38.002Z,101686.53
2022-11-29T17:13:40.620Z,101646.78
2022-11-29T17:15:42.624Z,101682.19
2022-11-29T17:17:44.924Z,101670.16
2022-11-29T17:19:46.957Z,101681.28
2022-11-29T17:21:49.712Z,101657.56
2022-11-29T17:23:53.436Z,101653.56
2022-11-29T17:26:02.426Z,101641.94
2022-11-29T17:28:18.821Z,101626.22
2022-11-29T17:30:29.448Z,101600.09
2022-11-29T17:32:35.332Z,101601.78
2022-11-29T17:34:37.616Z,101693.38
2022-11-29T17:36:40.703Z,101685.63
2022-11-29T17:38:44.617Z,101678.91
2022-11-29T17:40:46.760Z,101670.25
2022-11-29T17:42:51.663Z,101683.75
2022-11-29T17:44:53.896Z,101674.00
2022-11-29T17:46:56.183Z,101683.00
2022-11-29T17:49:03.151Z,101680.13
2022-11-29T17:51:13.516Z,101662.47
2022-11-29T17:53:30.767Z,101679.97
2022-11-29T17:55:33.127Z,101666.31
2022-11-29T17:57:35.214Z,101688.09
2022-11-29T17:59:37.559Z,101678.50
2022-11-29T18:01:39.935Z,101692.25
2022-11-29T18:03:44.162Z,101666.72
2022-11-29T18:05:46.508Z,101687.66
2022-11-29T18:08:00.752Z,101699.63
2022-11-29T18:10:02.982Z,101682.66
2022-11-29T18:12:07.621Z,101690.63
2022-11-29T18:14:11.366Z,101683.31
2022-11-29T18:16:16.767Z,101692.72
2022-11-29T18:18:18.973Z,101681.22
2022-11-29T18:20:21.000Z,101692.00
2022-11-29T18:22:23.995Z,101688.97
2022-11-29T18:24:26.236Z,101683.75
2022-11-29T18:26:28.832Z,101700.19
2022-11-29T18:28:34.557Z,101691.38
2022-11-29T18:30:36.711Z,101683.97
2022-11-29T18:32:39.088Z,101687.91
2022-11-29T18:34:41.054Z,101692.41
2022-11-29T18:36:46.163Z,101686.88
2022-11-29T18:38:48.998Z,101672.34
2022-11-29T18:40:51.086Z,101685.53
2022-11-29T18:42:53.233Z,101690.25
2022-11-29T18:44:58.852Z,101696.06
2022-11-29T18:47:01.305Z,101689.47
2022-11-29T18:49:04.375Z,101695.03
2022-11-29T18:51:14.383Z,101677.34
2022-11-29T18:53:16.386Z,101671.06
2022-11-29T18:55:18.418Z,101678.97
2022-11-29T18:57:20.618Z,101683.47
2022-11-29T18:59:23.149Z,101685.28
2022-11-29T19:01:27.662Z,101676.44
2022-11-29T19:03:30.238Z,101666.13
2022-11-29T19:05:32.336Z,101688.72
2022-11-29T19:07:35.207Z,101662.81
2022-11-29T19:09:37.416Z,101685.09
2022-11-29T19:11:39.630Z,101688.22
2022-11-29T19:13:41.887Z,101683.41
2022-11-29T19:15:44.085Z,101693.16
2022-11-29T19:17:46.313Z,101688.66
2022-11-29T19:19:49.000Z,101682.84
2022-11-29T19:21:51.276Z,101685.38
2022-11-29T19:23:55.682Z,101685.69
2022-11-29T19:26:09.047Z,101683.75
2022-11-29T19:28:14.232Z,101669.66
2022-11-29T19:30:17.526Z,101690.94
2022-11-29T19:32:20.161Z,101680.19
2022-11-29T19:34:22.166Z,101690.25
2022-11-29T19:36:29.819Z,101694.94
2022-11-29T19:38:32.026Z,101686.91
2022-11-29T19:40:34.830Z,101695.47
2022-11-29T19:42:39.417Z,101677.88
2022-11-29T19:45:14.718Z,101680.47
2022-11-29T19:47:03.827Z,101677.66
2022-11-29T19:49:06.482Z,101686.25
2022-11-29T19:51:09.732Z,101686.72
2022-11-29T19:53:12.002Z,101681.06
2022-11-29T19:55:14.432Z,101694.06
2022-11-29T19:57:16.714Z,101690.78
2022-11-29T19:59:19.361Z,101692.59
2022-11-29T20:01:39.207Z,101684.69
2022-11-29T20:03:45.891Z,101688.28
2022-11-29T20:05:56.222Z,101690.22
2022-11-29T20:07:58.467Z,101690.22
2022-11-29T20:10:00.848Z,101688.44
2022-11-29T20:12:02.829Z,101684.84
2022-11-29T20:14:06.134Z,101684.38
2022-11-29T20:16:10.895Z,101687.50
2022-11-29T20:18:13.502Z,101682.84
2022-11-29T20:20:19.397Z,101685.53
2022-11-29T20:22:21.561Z,101674.59
2022-11-29T20:24:27.269Z,101689.09
2022-11-29T20:26:32.301Z,101685.66
2022-11-29T20:28:36.080Z,101686.25
2022-11-29T20:30:38.357Z,101682.97
2022-11-29T20:32:45.168Z,101700.16
2022-11-29T20:34:47.671Z,101682.38
2022-11-29T20:37:13.068Z,101691.50
2022-11-29T20:39:35.886Z,101691.50
2022-11-29T20:41:54.396Z,101688.66
2022-11-29T20:49:28.841Z,101694.38
2022-11-29T20:52:19.880Z,101702.50
2022-11-29T20:54:25.926Z,101681.91
2022-11-29T20:56:35.187Z,101661.22
2022-11-29T20:58:38.745Z,101685.53
2022-11-29T21:00:41.042Z,101700.66
2022-11-29T21:02:49.518Z,101673.97
2022-11-29T21:04:52.213Z,101696.50
2022-11-29T21:06:56.858Z,101693.41
2022-11-29T21:09:01.755Z,101686.38
2022-11-29T21:11:07.403Z,101700.78
2022-11-29T21:13:18.358Z,101692.69
2022-11-29T21:15:22.618Z,101698.47
2022-11-29T21:17:54.273Z,101680.66
2022-11-29T21:19:58.948Z,101697.50
2022-11-29T21:22:37.573Z,101657.38
2022-11-29T21:24:51.492Z,101692.31
2022-11-29T21:26:53.922Z,101687.97
2022-11-29T21:29:11.795Z,101685.03
2022-11-29T21:31:16.857Z,101682.31
2022-11-29T21:33:32.141Z,101690.56
2022-11-29T21:35:42.821Z,101672.56
2022-11-29T21:37:47.801Z,101660.44
2022-11-29T21:39:53.808Z,101685.66
2022-11-29T21:41:55.930Z,101677.41
2022-11-29T21:44:06.602Z,101684.59
2022-11-29T21:46:10.062Z,101683.69
2022-11-29T21:48:32.374Z,101683.41
2022-11-29T21:50:34.481Z,101684.47
2022-11-29T21:52:36.580Z,101681.97
2022-11-29T21:54:39.573Z,101692.34
2022-11-29T21:56:42.047Z,101676.69
2022-11-29T21:58:44.518Z,101691.97
2022-11-29T22:00:46.584Z,101690.66
2022-11-29T22:02:48.718Z,101694.38
2022-11-29T22:04:50.760Z,101689.75
2022-11-29T22:06:52.913Z,101680.28
2022-11-29T22:08:55.081Z,101694.34
2022-11-29T22:11:05.261Z,101698.47
2022-11-29T22:13:07.471Z,101697.09
2022-11-29T22:15:12.523Z,101704.16
2022-11-29T22:17:14.583Z,101691.03
2022-11-29T22:19:18.009Z,101711.94
2022-11-29T22:21:20.362Z,101700.81
2022-11-29T22:23:22.439Z,101706.22
2022-11-29T22:25:24.647Z,101704.09
2022-11-29T22:27:26.555Z,101711.41
2022-11-29T22:29:28.917Z,101700.25
2022-11-29T22:31:30.961Z,101708.97
2022-11-29T22:33:33.656Z,101715.00
2022-11-29T22:35:43.065Z,101719.91
2022-11-29T22:37:45.905Z,101709.09
2022-11-29T22:39:49.467Z,101701.94
2022-11-29T22:41:54.714Z,101701.34
2022-11-29T22:43:57.348Z,101701.19
2022-11-29T22:46:10.584Z,101711.16
2022-11-29T22:48:13.710Z,101700.25
2022-11-29T22:50:15.890Z,101706.06
2022-11-29T22:52:18.433Z,101713.56
2022-11-29T22:54:20.651Z,101706.66
2022-11-29T22:56:23.548Z,101714.03
2022-11-29T22:58:26.027Z,101711.16
2022-11-29T23:00:28.199Z,101707.00
2022-11-29T23:02:30.368Z,101703.53
2022-11-29T23:04:32.314Z,101721.94
2022-11-29T23:06:37.500Z,101716.00
2022-11-29T23:08:41.548Z,101715.25
2022-11-29T23:10:43.710Z,101711.31
2022-11-29T23:12:46.718Z,101718.84
2022-11-29T23:14:55.833Z,101717.63
2022-11-29T23:16:58.604Z,101710.28
2022-11-29T23:19:01.149Z,101716.75
2022-11-29T23:21:06.001Z,101717.53
2022-11-29T23:23:08.167Z,101711.25
2022-11-29T23:25:10.224Z,101717.97
2022-11-29T23:27:12.295Z,101711.50
2022-11-29T23:29:18.658Z,101709.28
2022-11-29T23:31:21.724Z,101722.69
2022-11-29T23:33:24.417Z,101710.38
2022-11-29T23:35:27.008Z,101700.44
2022-11-29T23:37:29.196Z,101712.16
2022-11-29T23:39:31.213Z,101704.38
2022-11-29T23:41:34.474Z,101702.41
2022-11-29T23:43:38.583Z,101704.38
2022-11-29T23:45:41.069Z,101712.91
2022-11-29T23:47:43.264Z,101705.34
2022-11-29T23:49:45.353Z,101700.69
2022-11-29T23:51:47.872Z,101700.03
2022-11-29T23:53:53.990Z,101696.75
2022-11-29T23:56:00.725Z,101700.13
2022-11-29T23:58:03.416Z,101703.53
